Weather at Muenster Aero Airport

Public forecast

Using degrees Celsius for public forecast. Weather courtesy of forecast.io.

Closest aviation weather report (METAR) to Muenster Aero Airport

Closest report is Meiringen Airport, 17.0 nm (31.5 km) NNW. Retrieved 2020/10/24 19:20 UTC (6 minutes ago):

LSMM 241920Z AUTO 10004KT 9999NDV NCD 06/06 Q1018 RMK

Closest aviation forecast (TAF) to Muenster Aero Airport

Closest forecast is Meiringen Airport, 17.0 nm (31.5 km) NNW. Retrieved 2020/10/24 17:00 UTC (2 hours ago):

TAF LSMM 241625Z 2417/2523 VRB03KT CAVOK PROB40 2500/2510 1500 BCFG SCT002 PROB30 TEMPO 2503/2506 0800 FG VV002